Terminal Aerodrome Forecast
Issued by NWS Jackson, KY

Home | Current Version | Previous Version | Text Only | Print | Product List | Glossary On
Versions: 1 2 3 4 5 6 7 8 9 10 11 12 13 14 15 16 17
160
FTUS43 KJKL 212320
TAFLOZ
TAF
KLOZ 212320Z 2200/2224 11002KT P6SM BKN080
     FM220900 00000KT P6SM VCSH BKN035
     FM221200 10003KT 6SM -SHRA OVC025
     FM221400 12006KT 4SM -SHRA OVC015
     FM221800 18008KT P6SM VCTS OVC035CB=

USA.gov is the U.S. government's official web portal to all federal, state and local government web resources and services.